sensor_id;sensor_type;location;lat;lon;timestamp;P1;durP1;ratioP1;P2;durP2;ratioP2
16288;SDS011;26089;43.538;5.250;2023-01-29T00:01:33;51.40;;;25.27;;
16288;SDS011;26089;43.538;5.250;2023-01-29T00:04:00;56.93;;;26.77;;
16288;SDS011;26089;43.538;5.250;2023-01-29T00:06:28;82.03;;;31.03;;
16288;SDS011;26089;43.538;5.250;2023-01-29T00:08:56;72.33;;;28.03;;
16288;SDS011;26089;43.538;5.250;2023-01-29T00:11:23;65.97;;;26.97;;
16288;SDS011;26089;43.538;5.250;2023-01-29T00:13:50;77.10;;;29.47;;
16288;SDS011;26089;43.538;5.250;2023-01-29T00:16:18;59.13;;;26.30;;
16288;SDS011;26089;43.538;5.250;2023-01-29T00:18:45;61.67;;;24.50;;
16288;SDS011;26089;43.538;5.250;2023-01-29T00:21:13;48.73;;;22.53;;
16288;SDS011;26089;43.538;5.250;2023-01-29T00:23:42;44.50;;;21.70;;
16288;SDS011;26089;43.538;5.250;2023-01-29T00:26:09;50.33;;;22.93;;
16288;SDS011;26089;43.538;5.250;2023-01-29T00:28:37;46.50;;;22.50;;
16288;SDS011;26089;43.538;5.250;2023-01-29T00:31:07;45.87;;;26.33;;
16288;SDS011;26089;43.538;5.250;2023-01-29T00:33:34;61.43;;;28.90;;
16288;SDS011;26089;43.538;5.250;2023-01-29T00:36:02;53.63;;;31.03;;
16288;SDS011;26089;43.538;5.250;2023-01-29T00:38:29;41.87;;;23.67;;
16288;SDS011;26089;43.538;5.250;2023-01-29T00:40:58;36.13;;;19.43;;
16288;SDS011;26089;43.538;5.250;2023-01-29T00:43:48;61.90;;;24.13;;
16288;SDS011;26089;43.538;5.250;2023-01-29T00:46:33;45.40;;;19.13;;
16288;SDS011;26089;43.538;5.250;2023-01-29T00:49:00;67.53;;;26.93;;
16288;SDS011;26089;43.538;5.250;2023-01-29T00:51:27;51.87;;;23.07;;
16288;SDS011;26089;43.538;5.250;2023-01-29T00:53:54;51.30;;;23.30;;
16288;SDS011;26089;43.538;5.250;2023-01-29T00:56:23;38.50;;;20.13;;
16288;SDS011;26089;43.538;5.250;2023-01-29T00:58:51;40.83;;;21.70;;
16288;SDS011;26089;43.538;5.250;2023-01-29T01:01:18;46.80;;;22.10;;
16288;SDS011;26089;43.538;5.250;2023-01-29T01:04:06;37.53;;;19.83;;
16288;SDS011;26089;43.538;5.250;2023-01-29T01:06:33;43.90;;;21.07;;
16288;SDS011;26089;43.538;5.250;2023-01-29T01:09:02;39.70;;;20.50;;
16288;SDS011;26089;43.538;5.250;2023-01-29T01:11:48;37.83;;;21.00;;
16288;SDS011;26089;43.538;5.250;2023-01-29T01:14:15;34.13;;;20.33;;
16288;SDS011;26089;43.538;5.250;2023-01-29T01:16:43;33.97;;;19.90;;
16288;SDS011;26089;43.538;5.250;2023-01-29T01:19:10;36.57;;;20.17;;
16288;SDS011;26089;43.538;5.250;2023-01-29T01:21:37;36.37;;;20.43;;
16288;SDS011;26089;43.538;5.250;2023-01-29T01:24:04;28.43;;;16.93;;
16288;SDS011;26089;43.538;5.250;2023-01-29T01:26:32;32.30;;;17.97;;
16288;SDS011;26089;43.538;5.250;2023-01-29T01:29:00;28.07;;;18.20;;
16288;SDS011;26089;43.538;5.250;2023-01-29T01:31:27;32.90;;;17.73;;
16288;SDS011;26089;43.538;5.250;2023-01-29T01:33:54;35.07;;;18.17;;
16288;SDS011;26089;43.538;5.250;2023-01-29T01:36:21;33.57;;;17.80;;
16288;SDS011;26089;43.538;5.250;2023-01-29T01:38:48;34.37;;;18.77;;
16288;SDS011;26089;43.538;5.250;2023-01-29T01:41:16;30.23;;;18.67;;
16288;SDS011;26089;43.538;5.250;2023-01-29T01:43:46;23.20;;;16.00;;
16288;SDS011;26089;43.538;5.250;2023-01-29T01:46:17;31.57;;;18.27;;
16288;SDS011;26089;43.538;5.250;2023-01-29T01:48:44;25.03;;;15.60;;
16288;SDS011;26089;43.538;5.250;2023-01-29T01:51:14;30.67;;;17.20;;
16288;SDS011;26089;43.538;5.250;2023-01-29T01:53:42;23.67;;;15.07;;
16288;SDS011;26089;43.538;5.250;2023-01-29T01:56:16;29.73;;;16.87;;
16288;SDS011;26089;43.538;5.250;2023-01-29T01:58:48;22.83;;;15.17;;
16288;SDS011;26089;43.538;5.250;2023-01-29T02:01:19;26.83;;;15.63;;
16288;SDS011;26089;43.538;5.250;2023-01-29T02:03:53;31.40;;;18.40;;
16288;SDS011;26089;43.538;5.250;2023-01-29T02:06:41;28.03;;;16.37;;
16288;SDS011;26089;43.538;5.250;2023-01-29T02:09:27;22.00;;;14.33;;
16288;SDS011;26089;43.538;5.250;2023-01-29T02:12:00;31.77;;;18.47;;
16288;SDS011;26089;43.538;5.250;2023-01-29T02:14:29;23.93;;;14.67;;
16288;SDS011;26089;43.538;5.250;2023-01-29T02:17:00;33.10;;;16.80;;
16288;SDS011;26089;43.538;5.250;2023-01-29T02:19:31;27.03;;;17.43;;
16288;SDS011;26089;43.538;5.250;2023-01-29T02:22:11;21.80;;;14.07;;
16288;SDS011;26089;43.538;5.250;2023-01-29T02:25:00;29.67;;;16.30;;
16288;SDS011;26089;43.538;5.250;2023-01-29T02:27:39;29.27;;;16.97;;
16288;SDS011;26089;43.538;5.250;2023-01-29T02:30:30;34.37;;;18.03;;
16288;SDS011;26089;43.538;5.250;2023-01-29T02:33:03;29.67;;;16.03;;
16288;SDS011;26089;43.538;5.250;2023-01-29T02:35:38;27.33;;;17.30;;
16288;SDS011;26089;43.538;5.250;2023-01-29T02:38:10;29.90;;;16.50;;
16288;SDS011;26089;43.538;5.250;2023-01-29T02:40:43;27.67;;;16.23;;
16288;SDS011;26089;43.538;5.250;2023-01-29T02:43:14;21.03;;;13.67;;
16288;SDS011;26089;43.538;5.250;2023-01-29T02:45:55;26.07;;;15.07;;
16288;SDS011;26089;43.538;5.250;2023-01-29T02:48:28;20.50;;;14.27;;
16288;SDS011;26089;43.538;5.250;2023-01-29T02:51:04;32.40;;;14.80;;
16288;SDS011;26089;43.538;5.250;2023-01-29T02:53:37;29.00;;;15.23;;
16288;SDS011;26089;43.538;5.250;2023-01-29T02:56:12;25.93;;;15.00;;
16288;SDS011;26089;43.538;5.250;2023-01-29T02:58:43;20.37;;;13.43;;
16288;SDS011;26089;43.538;5.250;2023-01-29T03:01:15;20.73;;;12.67;;
16288;SDS011;26089;43.538;5.250;2023-01-29T03:03:46;19.57;;;12.97;;
16288;SDS011;26089;43.538;5.250;2023-01-29T03:06:19;26.57;;;14.17;;
16288;SDS011;26089;43.538;5.250;2023-01-29T03:08:51;20.03;;;13.20;;
16288;SDS011;26089;43.538;5.250;2023-01-29T03:11:21;27.07;;;14.60;;
16288;SDS011;26089;43.538;5.250;2023-01-29T03:13:50;24.97;;;14.07;;
16288;SDS011;26089;43.538;5.250;2023-01-29T03:16:23;21.33;;;12.30;;
16288;SDS011;26089;43.538;5.250;2023-01-29T03:18:57;23.10;;;12.97;;
16288;SDS011;26089;43.538;5.250;2023-01-29T03:21:31;21.43;;;13.70;;
16288;SDS011;26089;43.538;5.250;2023-01-29T03:24:20;20.47;;;12.43;;
16288;SDS011;26089;43.538;5.250;2023-01-29T03:27:11;19.40;;;12.60;;
16288;SDS011;26089;43.538;5.250;2023-01-29T03:29:59;23.07;;;12.87;;
16288;SDS011;26089;43.538;5.250;2023-01-29T03:32:46;24.30;;;13.00;;
16288;SDS011;26089;43.538;5.250;2023-01-29T03:35:17;25.53;;;13.60;;
16288;SDS011;26089;43.538;5.250;2023-01-29T03:37:57;20.50;;;13.20;;
16288;SDS011;26089;43.538;5.250;2023-01-29T03:40:26;23.47;;;13.47;;
16288;SDS011;26089;43.538;5.250;2023-01-29T03:42:58;24.43;;;13.30;;
16288;SDS011;26089;43.538;5.250;2023-01-29T03:45:37;19.20;;;12.47;;
16288;SDS011;26089;43.538;5.250;2023-01-29T03:48:11;20.50;;;12.33;;
16288;SDS011;26089;43.538;5.250;2023-01-29T03:50:46;21.73;;;12.97;;
16288;SDS011;26089;43.538;5.250;2023-01-29T03:53:22;21.20;;;13.20;;
16288;SDS011;26089;43.538;5.250;2023-01-29T03:55:54;20.57;;;11.67;;
16288;SDS011;26089;43.538;5.250;2023-01-29T03:58:28;20.87;;;12.63;;
16288;SDS011;26089;43.538;5.250;2023-01-29T04:01:02;20.97;;;11.97;;
16288;SDS011;26089;43.538;5.250;2023-01-29T04:03:37;18.80;;;12.53;;
16288;SDS011;26089;43.538;5.250;2023-01-29T04:06:08;19.57;;;11.07;;
16288;SDS011;26089;43.538;5.250;2023-01-29T04:08:39;22.03;;;12.53;;
16288;SDS011;26089;43.538;5.250;2023-01-29T04:11:12;19.53;;;12.37;;
16288;SDS011;26089;43.538;5.250;2023-01-29T04:13:42;17.77;;;10.97;;
16288;SDS011;26089;43.538;5.250;2023-01-29T04:16:11;23.67;;;13.30;;
16288;SDS011;26089;43.538;5.250;2023-01-29T04:18:44;21.07;;;12.73;;
16288;SDS011;26089;43.538;5.250;2023-01-29T04:21:12;18.60;;;11.60;;
16288;SDS011;26089;43.538;5.250;2023-01-29T04:23:39;24.23;;;12.53;;
16288;SDS011;26089;43.538;5.250;2023-01-29T04:26:14;23.53;;;13.13;;
16288;SDS011;26089;43.538;5.250;2023-01-29T04:29:04;22.93;;;12.97;;
16288;SDS011;26089;43.538;5.250;2023-01-29T04:31:42;22.20;;;13.27;;
16288;SDS011;26089;43.538;5.250;2023-01-29T04:34:17;15.37;;;11.03;;
16288;SDS011;26089;43.538;5.250;2023-01-29T04:36:51;21.20;;;12.20;;
16288;SDS011;26089;43.538;5.250;2023-01-29T04:39:24;23.07;;;13.53;;
16288;SDS011;26089;43.538;5.250;2023-01-29T04:41:58;20.10;;;13.77;;
16288;SDS011;26089;43.538;5.250;2023-01-29T04:44:36;19.23;;;12.37;;
16288;SDS011;26089;43.538;5.250;2023-01-29T04:47:09;20.00;;;13.27;;
16288;SDS011;26089;43.538;5.250;2023-01-29T04:49:45;19.90;;;12.73;;
16288;SDS011;26089;43.538;5.250;2023-01-29T04:52:20;21.93;;;12.67;;
16288;SDS011;26089;43.538;5.250;2023-01-29T04:54:53;19.63;;;12.30;;
16288;SDS011;26089;43.538;5.250;2023-01-29T04:57:27;21.73;;;13.27;;
16288;SDS011;26089;43.538;5.250;2023-01-29T05:00:02;19.03;;;12.60;;
16288;SDS011;26089;43.538;5.250;2023-01-29T05:02:32;19.27;;;11.97;;
16288;SDS011;26089;43.538;5.250;2023-01-29T05:05:04;20.87;;;11.97;;
16288;SDS011;26089;43.538;5.250;2023-01-29T05:07:34;21.83;;;12.53;;
16288;SDS011;26089;43.538;5.250;2023-01-29T05:10:04;21.50;;;12.90;;
16288;SDS011;26089;43.538;5.250;2023-01-29T05:12:32;19.47;;;11.87;;
16288;SDS011;26089;43.538;5.250;2023-01-29T05:15:01;18.40;;;10.83;;
16288;SDS011;26089;43.538;5.250;2023-01-29T05:17:33;24.27;;;13.97;;
16288;SDS011;26089;43.538;5.250;2023-01-29T05:20:00;22.37;;;13.47;;
16288;SDS011;26089;43.538;5.250;2023-01-29T05:22:28;20.77;;;13.80;;
16288;SDS011;26089;43.538;5.250;2023-01-29T05:24:56;23.67;;;13.67;;
16288;SDS011;26089;43.538;5.250;2023-01-29T05:27:25;16.80;;;12.17;;
16288;SDS011;26089;43.538;5.250;2023-01-29T05:30:14;22.03;;;13.83;;
16288;SDS011;26089;43.538;5.250;2023-01-29T05:32:41;20.83;;;12.97;;
16288;SDS011;26089;43.538;5.250;2023-01-29T05:35:08;21.43;;;12.57;;
16288;SDS011;26089;43.538;5.250;2023-01-29T05:37:36;18.70;;;12.70;;
16288;SDS011;26089;43.538;5.250;2023-01-29T05:40:04;20.10;;;11.97;;
16288;SDS011;26089;43.538;5.250;2023-01-29T05:42:32;18.57;;;11.77;;
16288;SDS011;26089;43.538;5.250;2023-01-29T05:44:59;21.17;;;12.53;;
16288;SDS011;26089;43.538;5.250;2023-01-29T05:47:26;16.57;;;10.87;;
16288;SDS011;26089;43.538;5.250;2023-01-29T05:49:53;23.00;;;13.07;;
16288;SDS011;26089;43.538;5.250;2023-01-29T05:52:20;18.13;;;10.93;;
16288;SDS011;26089;43.538;5.250;2023-01-29T05:54:48;21.70;;;12.33;;
16288;SDS011;26089;43.538;5.250;2023-01-29T05:57:15;25.00;;;13.33;;
16288;SDS011;26089;43.538;5.250;2023-01-29T05:59:42;25.20;;;14.17;;
16288;SDS011;26089;43.538;5.250;2023-01-29T06:02:09;15.30;;;11.00;;
16288;SDS011;26089;43.538;5.250;2023-01-29T06:04:36;20.70;;;12.40;;
16288;SDS011;26089;43.538;5.250;2023-01-29T06:07:03;18.33;;;10.83;;
16288;SDS011;26089;43.538;5.250;2023-01-29T06:09:30;24.93;;;12.87;;
16288;SDS011;26089;43.538;5.250;2023-01-29T06:11:58;21.63;;;12.57;;
16288;SDS011;26089;43.538;5.250;2023-01-29T06:14:25;22.37;;;12.97;;
16288;SDS011;26089;43.538;5.250;2023-01-29T06:16:52;20.80;;;13.43;;
16288;SDS011;26089;43.538;5.250;2023-01-29T06:19:19;22.33;;;13.10;;
16288;SDS011;26089;43.538;5.250;2023-01-29T06:21:46;22.53;;;12.63;;
16288;SDS011;26089;43.538;5.250;2023-01-29T06:24:13;23.13;;;13.77;;
16288;SDS011;26089;43.538;5.250;2023-01-29T06:26:40;26.77;;;13.13;;
16288;SDS011;26089;43.538;5.250;2023-01-29T06:29:09;18.80;;;11.93;;
16288;SDS011;26089;43.538;5.250;2023-01-29T06:31:36;20.90;;;12.30;;
16288;SDS011;26089;43.538;5.250;2023-01-29T06:34:03;17.33;;;10.60;;
16288;SDS011;26089;43.538;5.250;2023-01-29T06:36:29;20.53;;;12.93;;
16288;SDS011;26089;43.538;5.250;2023-01-29T06:38:56;16.33;;;10.97;;
16288;SDS011;26089;43.538;5.250;2023-01-29T06:41:23;26.03;;;13.57;;
16288;SDS011;26089;43.538;5.250;2023-01-29T06:43:50;22.77;;;13.07;;
16288;SDS011;26089;43.538;5.250;2023-01-29T06:46:19;22.60;;;13.30;;
16288;SDS011;26089;43.538;5.250;2023-01-29T06:48:46;26.87;;;13.37;;
16288;SDS011;26089;43.538;5.250;2023-01-29T06:51:13;23.73;;;13.73;;
16288;SDS011;26089;43.538;5.250;2023-01-29T06:53:40;22.93;;;12.43;;
16288;SDS011;26089;43.538;5.250;2023-01-29T06:56:07;26.70;;;13.27;;
16288;SDS011;26089;43.538;5.250;2023-01-29T06:58:35;27.57;;;14.30;;
16288;SDS011;26089;43.538;5.250;2023-01-29T07:01:03;38.20;;;15.47;;
16288;SDS011;26089;43.538;5.250;2023-01-29T07:03:32;28.40;;;17.20;;
16288;SDS011;26089;43.538;5.250;2023-01-29T07:05:59;27.30;;;15.63;;
16288;SDS011;26089;43.538;5.250;2023-01-29T07:08:26;24.07;;;13.73;;
16288;SDS011;26089;43.538;5.250;2023-01-29T07:10:57;27.67;;;16.30;;
16288;SDS011;26089;43.538;5.250;2023-01-29T07:13:25;21.90;;;13.13;;
16288;SDS011;26089;43.538;5.250;2023-01-29T07:15:52;21.00;;;12.97;;
16288;SDS011;26089;43.538;5.250;2023-01-29T07:18:19;30.47;;;15.63;;
16288;SDS011;26089;43.538;5.250;2023-01-29T07:20:47;24.10;;;14.63;;
16288;SDS011;26089;43.538;5.250;2023-01-29T07:23:14;19.13;;;12.60;;
16288;SDS011;26089;43.538;5.250;2023-01-29T07:25:41;20.07;;;12.93;;
16288;SDS011;26089;43.538;5.250;2023-01-29T07:28:08;23.57;;;13.67;;
16288;SDS011;26089;43.538;5.250;2023-01-29T07:30:35;16.87;;;11.57;;
16288;SDS011;26089;43.538;5.250;2023-01-29T07:33:03;26.13;;;13.90;;
16288;SDS011;26089;43.538;5.250;2023-01-29T07:35:31;25.87;;;13.90;;
16288;SDS011;26089;43.538;5.250;2023-01-29T07:38:02;20.13;;;12.30;;
16288;SDS011;26089;43.538;5.250;2023-01-29T07:40:29;18.57;;;12.23;;
16288;SDS011;26089;43.538;5.250;2023-01-29T07:42:56;17.43;;;10.97;;
16288;SDS011;26089;43.538;5.250;2023-01-29T07:45:24;20.27;;;12.43;;
16288;SDS011;26089;43.538;5.250;2023-01-29T07:47:51;22.60;;;14.20;;
16288;SDS011;26089;43.538;5.250;2023-01-29T07:50:19;19.30;;;13.00;;
16288;SDS011;26089;43.538;5.250;2023-01-29T07:52:46;21.73;;;14.27;;
16288;SDS011;26089;43.538;5.250;2023-01-29T07:55:14;25.90;;;14.77;;
16288;SDS011;26089;43.538;5.250;2023-01-29T07:57:42;19.20;;;13.27;;
16288;SDS011;26089;43.538;5.250;2023-01-29T08:00:09;21.90;;;14.37;;
16288;SDS011;26089;43.538;5.250;2023-01-29T08:02:37;16.57;;;11.37;;
16288;SDS011;26089;43.538;5.250;2023-01-29T08:05:05;20.53;;;12.47;;
16288;SDS011;26089;43.538;5.250;2023-01-29T08:07:32;17.67;;;12.43;;
16288;SDS011;26089;43.538;5.250;2023-01-29T08:09:59;19.83;;;11.83;;
16288;SDS011;26089;43.538;5.250;2023-01-29T08:12:27;17.37;;;11.67;;
16288;SDS011;26089;43.538;5.250;2023-01-29T08:14:54;16.70;;;10.97;;
16288;SDS011;26089;43.538;5.250;2023-01-29T08:17:21;16.67;;;10.97;;
16288;SDS011;26089;43.538;5.250;2023-01-29T08:19:48;14.10;;;10.60;;
16288;SDS011;26089;43.538;5.250;2023-01-29T08:22:15;17.93;;;11.87;;
16288;SDS011;26089;43.538;5.250;2023-01-29T08:24:42;22.10;;;15.53;;
16288;SDS011;26089;43.538;5.250;2023-01-29T08:27:09;15.87;;;11.67;;
16288;SDS011;26089;43.538;5.250;2023-01-29T08:29:37;12.93;;;10.73;;
16288;SDS011;26089;43.538;5.250;2023-01-29T08:32:05;14.67;;;10.80;;
16288;SDS011;26089;43.538;5.250;2023-01-29T08:34:35;16.60;;;11.17;;
16288;SDS011;26089;43.538;5.250;2023-01-29T08:37:02;15.47;;;11.23;;
16288;SDS011;26089;43.538;5.250;2023-01-29T08:39:29;16.77;;;13.10;;
16288;SDS011;26089;43.538;5.250;2023-01-29T08:41:56;16.37;;;13.67;;
16288;SDS011;26089;43.538;5.250;2023-01-29T08:44:23;17.20;;;12.60;;
16288;SDS011;26089;43.538;5.250;2023-01-29T08:46:51;18.27;;;13.53;;
16288;SDS011;26089;43.538;5.250;2023-01-29T08:49:18;20.90;;;13.27;;
16288;SDS011;26089;43.538;5.250;2023-01-29T08:51:45;17.20;;;12.87;;
16288;SDS011;26089;43.538;5.250;2023-01-29T08:54:12;17.50;;;12.30;;
16288;SDS011;26089;43.538;5.250;2023-01-29T08:56:39;16.30;;;11.87;;
16288;SDS011;26089;43.538;5.250;2023-01-29T08:59:06;16.27;;;12.03;;
16288;SDS011;26089;43.538;5.250;2023-01-29T09:01:33;19.57;;;13.33;;
16288;SDS011;26089;43.538;5.250;2023-01-29T09:04:01;19.53;;;13.23;;
16288;SDS011;26089;43.538;5.250;2023-01-29T09:06:28;16.73;;;11.97;;
16288;SDS011;26089;43.538;5.250;2023-01-29T09:08:55;18.17;;;12.27;;
16288;SDS011;26089;43.538;5.250;2023-01-29T09:11:22;18.67;;;12.60;;
16288;SDS011;26089;43.538;5.250;2023-01-29T09:13:49;19.17;;;12.13;;
16288;SDS011;26089;43.538;5.250;2023-01-29T09:16:16;17.57;;;12.23;;
16288;SDS011;26089;43.538;5.250;2023-01-29T09:18:43;16.77;;;12.40;;
16288;SDS011;26089;43.538;5.250;2023-01-29T09:21:11;15.13;;;11.27;;
16288;SDS011;26089;43.538;5.250;2023-01-29T09:23:38;15.07;;;11.13;;
16288;SDS011;26089;43.538;5.250;2023-01-29T09:26:06;17.53;;;11.37;;
16288;SDS011;26089;43.538;5.250;2023-01-29T09:28:33;15.83;;;11.07;;
16288;SDS011;26089;43.538;5.250;2023-01-29T09:31:00;16.27;;;12.10;;
16288;SDS011;26089;43.538;5.250;2023-01-29T09:33:27;18.63;;;13.10;;
16288;SDS011;26089;43.538;5.250;2023-01-29T09:35:55;17.27;;;12.67;;
16288;SDS011;26089;43.538;5.250;2023-01-29T09:38:23;17.40;;;12.00;;
16288;SDS011;26089;43.538;5.250;2023-01-29T09:40:53;14.87;;;11.90;;
16288;SDS011;26089;43.538;5.250;2023-01-29T09:43:30;16.97;;;10.90;;
16288;SDS011;26089;43.538;5.250;2023-01-29T09:46:13;13.57;;;10.13;;
16288;SDS011;26089;43.538;5.250;2023-01-29T09:48:44;13.77;;;9.93;;
16288;SDS011;26089;43.538;5.250;2023-01-29T09:51:14;13.27;;;10.47;;
16288;SDS011;26089;43.538;5.250;2023-01-29T09:53:52;13.33;;;10.07;;
16288;SDS011;26089;43.538;5.250;2023-01-29T09:56:23;15.10;;;10.23;;
16288;SDS011;26089;43.538;5.250;2023-01-29T09:58:53;14.83;;;10.50;;
16288;SDS011;26089;43.538;5.250;2023-01-29T10:01:26;17.10;;;11.37;;
16288;SDS011;26089;43.538;5.250;2023-01-29T10:04:02;17.53;;;11.33;;
16288;SDS011;26089;43.538;5.250;2023-01-29T10:06:52;17.23;;;10.93;;
16288;SDS011;26089;43.538;5.250;2023-01-29T10:09:34;15.40;;;10.63;;
16288;SDS011;26089;43.538;5.250;2023-01-29T10:12:32;15.60;;;10.57;;
16288;SDS011;26089;43.538;5.250;2023-01-29T10:15:18;18.63;;;11.73;;
16288;SDS011;26089;43.538;5.250;2023-01-29T10:17:56;15.77;;;11.90;;
16288;SDS011;26089;43.538;5.250;2023-01-29T10:23:20;16.97;;;10.53;;
16288;SDS011;26089;43.538;5.250;2023-01-29T10:25:51;17.13;;;11.60;;
16288;SDS011;26089;43.538;5.250;2023-01-29T10:28:20;18.03;;;12.10;;
16288;SDS011;26089;43.538;5.250;2023-01-29T10:30:53;16.90;;;11.63;;
16288;SDS011;26089;43.538;5.250;2023-01-29T10:33:25;17.83;;;11.60;;
16288;SDS011;26089;43.538;5.250;2023-01-29T10:35:59;17.83;;;13.07;;
16288;SDS011;26089;43.538;5.250;2023-01-29T10:38:39;18.00;;;12.57;;
16288;SDS011;26089;43.538;5.250;2023-01-29T10:41:18;19.13;;;11.97;;
16288;SDS011;26089;43.538;5.250;2023-01-29T10:44:00;16.73;;;12.47;;
16288;SDS011;26089;43.538;5.250;2023-01-29T10:46:42;17.83;;;11.93;;
16288;SDS011;26089;43.538;5.250;2023-01-29T10:49:25;17.53;;;11.67;;
16288;SDS011;26089;43.538;5.250;2023-01-29T10:52:08;15.70;;;11.20;;
16288;SDS011;26089;43.538;5.250;2023-01-29T10:54:46;13.70;;;10.70;;
16288;SDS011;26089;43.538;5.250;2023-01-29T10:57:30;13.67;;;11.10;;
16288;SDS011;26089;43.538;5.250;2023-01-29T11:00:07;14.60;;;10.23;;
16288;SDS011;26089;43.538;5.250;2023-01-29T11:02:41;14.33;;;10.57;;
16288;SDS011;26089;43.538;5.250;2023-01-29T11:05:13;14.07;;;10.40;;
16288;SDS011;26089;43.538;5.250;2023-01-29T11:07:46;16.80;;;10.10;;
16288;SDS011;26089;43.538;5.250;2023-01-29T11:10:16;14.40;;;10.03;;
16288;SDS011;26089;43.538;5.250;2023-01-29T11:12:46;12.50;;;9.70;;
16288;SDS011;26089;43.538;5.250;2023-01-29T11:15:15;14.50;;;11.03;;
16288;SDS011;26089;43.538;5.250;2023-01-29T11:18:00;13.17;;;9.10;;
16288;SDS011;26089;43.538;5.250;2023-01-29T11:20:30;12.80;;;9.60;;
16288;SDS011;26089;43.538;5.250;2023-01-29T11:22:58;14.40;;;10.00;;
16288;SDS011;26089;43.538;5.250;2023-01-29T11:25:25;11.87;;;9.80;;
16288;SDS011;26089;43.538;5.250;2023-01-29T11:27:55;15.20;;;10.70;;
16288;SDS011;26089;43.538;5.250;2023-01-29T11:30:25;10.80;;;9.00;;
16288;SDS011;26089;43.538;5.250;2023-01-29T11:32:56;13.37;;;9.97;;
16288;SDS011;26089;43.538;5.250;2023-01-29T11:35:31;12.07;;;9.27;;
16288;SDS011;26089;43.538;5.250;2023-01-29T11:38:05;10.13;;;8.57;;
16288;SDS011;26089;43.538;5.250;2023-01-29T11:40:36;9.70;;;8.13;;
16288;SDS011;26089;43.538;5.250;2023-01-29T11:43:15;11.03;;;9.00;;
16288;SDS011;26089;43.538;5.250;2023-01-29T11:45:48;11.87;;;9.57;;
16288;SDS011;26089;43.538;5.250;2023-01-29T11:48:18;12.00;;;9.67;;
16288;SDS011;26089;43.538;5.250;2023-01-29T11:50:51;12.00;;;9.23;;
16288;SDS011;26089;43.538;5.250;2023-01-29T11:53:22;12.53;;;9.17;;
16288;SDS011;26089;43.538;5.250;2023-01-29T11:55:58;11.70;;;8.77;;
16288;SDS011;26089;43.538;5.250;2023-01-29T11:58:28;10.40;;;8.43;;
16288;SDS011;26089;43.538;5.250;2023-01-29T12:00:56;12.20;;;9.13;;
16288;SDS011;26089;43.538;5.250;2023-01-29T12:03:28;11.97;;;9.53;;
16288;SDS011;26089;43.538;5.250;2023-01-29T12:06:01;10.40;;;8.53;;
16288;SDS011;26089;43.538;5.250;2023-01-29T12:08:33;12.97;;;9.73;;
16288;SDS011;26089;43.538;5.250;2023-01-29T12:11:08;12.97;;;10.17;;
16288;SDS011;26089;43.538;5.250;2023-01-29T12:13:38;16.77;;;11.23;;
16288;SDS011;26089;43.538;5.250;2023-01-29T12:16:16;16.40;;;11.63;;
16288;SDS011;26089;43.538;5.250;2023-01-29T12:18:50;12.53;;;9.77;;
16288;SDS011;26089;43.538;5.250;2023-01-29T12:21:23;14.40;;;10.43;;
16288;SDS011;26089;43.538;5.250;2023-01-29T12:23:57;12.63;;;9.80;;
16288;SDS011;26089;43.538;5.250;2023-01-29T12:26:30;14.17;;;10.33;;
16288;SDS011;26089;43.538;5.250;2023-01-29T12:29:18;11.73;;;10.17;;
16288;SDS011;26089;43.538;5.250;2023-01-29T12:31:54;12.13;;;9.23;;
16288;SDS011;26089;43.538;5.250;2023-01-29T12:34:31;10.27;;;9.17;;
16288;SDS011;26089;43.538;5.250;2023-01-29T12:37:05;10.53;;;9.03;;
16288;SDS011;26089;43.538;5.250;2023-01-29T12:39:38;13.80;;;10.13;;
16288;SDS011;26089;43.538;5.250;2023-01-29T12:42:08;12.40;;;9.70;;
16288;SDS011;26089;43.538;5.250;2023-01-29T12:44:40;12.83;;;9.60;;
16288;SDS011;26089;43.538;5.250;2023-01-29T12:47:11;10.50;;;8.83;;
16288;SDS011;26089;43.538;5.250;2023-01-29T12:49:45;10.23;;;8.97;;
16288;SDS011;26089;43.538;5.250;2023-01-29T12:52:17;12.67;;;9.30;;
16288;SDS011;26089;43.538;5.250;2023-01-29T12:54:51;11.73;;;9.50;;
16288;SDS011;26089;43.538;5.250;2023-01-29T12:57:23;13.63;;;10.10;;
16288;SDS011;26089;43.538;5.250;2023-01-29T13:00:00;13.47;;;11.10;;
16288;SDS011;26089;43.538;5.250;2023-01-29T13:02:31;13.13;;;10.93;;
16288;SDS011;26089;43.538;5.250;2023-01-29T13:05:01;12.00;;;10.40;;
16288;SDS011;26089;43.538;5.250;2023-01-29T13:07:32;12.07;;;10.77;;
16288;SDS011;26089;43.538;5.250;2023-01-29T13:10:06;12.93;;;10.60;;
16288;SDS011;26089;43.538;5.250;2023-01-29T13:12:37;14.13;;;11.43;;
16288;SDS011;26089;43.538;5.250;2023-01-29T13:15:21;15.67;;;11.70;;
16288;SDS011;26089;43.538;5.250;2023-01-29T13:17:53;14.37;;;11.07;;
16288;SDS011;26089;43.538;5.250;2023-01-29T13:20:23;14.40;;;11.37;;
16288;SDS011;26089;43.538;5.250;2023-01-29T13:22:54;13.03;;;11.00;;
16288;SDS011;26089;43.538;5.250;2023-01-29T13:25:23;15.47;;;11.17;;
16288;SDS011;26089;43.538;5.250;2023-01-29T13:27:50;15.97;;;11.70;;
16288;SDS011;26089;43.538;5.250;2023-01-29T13:30:28;15.43;;;12.20;;
16288;SDS011;26089;43.538;5.250;2023-01-29T13:32:56;17.07;;;12.77;;
16288;SDS011;26089;43.538;5.250;2023-01-29T13:35:34;15.90;;;13.23;;
16288;SDS011;26089;43.538;5.250;2023-01-29T13:38:03;16.83;;;13.27;;
16288;SDS011;26089;43.538;5.250;2023-01-29T13:40:31;20.17;;;16.07;;
16288;SDS011;26089;43.538;5.250;2023-01-29T13:43:00;18.87;;;14.43;;
16288;SDS011;26089;43.538;5.250;2023-01-29T13:45:32;17.73;;;13.63;;
16288;SDS011;26089;43.538;5.250;2023-01-29T13:48:08;19.83;;;14.30;;
16288;SDS011;26089;43.538;5.250;2023-01-29T13:50:37;16.43;;;13.33;;
16288;SDS011;26089;43.538;5.250;2023-01-29T13:53:07;16.67;;;13.77;;
16288;SDS011;26089;43.538;5.250;2023-01-29T13:55:46;20.23;;;14.73;;
16288;SDS011;26089;43.538;5.250;2023-01-29T13:58:14;18.83;;;13.53;;
16288;SDS011;26089;43.538;5.250;2023-01-29T14:00:47;18.53;;;13.40;;
16288;SDS011;26089;43.538;5.250;2023-01-29T14:06:11;19.20;;;13.03;;
16288;SDS011;26089;43.538;5.250;2023-01-29T14:12:30;16.47;;;12.67;;
16288;SDS011;26089;43.538;5.250;2023-01-29T14:15:15;15.10;;;12.13;;
16288;SDS011;26089;43.538;5.250;2023-01-29T14:17:55;16.73;;;13.17;;
16288;SDS011;26089;43.538;5.250;2023-01-29T14:20:30;16.03;;;11.57;;
16288;SDS011;26089;43.538;5.250;2023-01-29T14:23:00;16.10;;;11.97;;
16288;SDS011;26089;43.538;5.250;2023-01-29T14:25:29;18.23;;;12.63;;
16288;SDS011;26089;43.538;5.250;2023-01-29T14:27:58;15.17;;;11.90;;
16288;SDS011;26089;43.538;5.250;2023-01-29T14:30:29;16.10;;;11.27;;
16288;SDS011;26089;43.538;5.250;2023-01-29T14:32:58;16.93;;;12.17;;
16288;SDS011;26089;43.538;5.250;2023-01-29T14:35:28;15.90;;;12.80;;
16288;SDS011;26089;43.538;5.250;2023-01-29T14:37:59;17.37;;;12.90;;
16288;SDS011;26089;43.538;5.250;2023-01-29T14:40:28;17.47;;;12.23;;
16288;SDS011;26089;43.538;5.250;2023-01-29T14:43:00;15.93;;;12.50;;
16288;SDS011;26089;43.538;5.250;2023-01-29T14:45:29;16.27;;;12.70;;
16288;SDS011;26089;43.538;5.250;2023-01-29T14:51:05;17.90;;;12.57;;
16288;SDS011;26089;43.538;5.250;2023-01-29T14:53:42;16.70;;;13.03;;
16288;SDS011;26089;43.538;5.250;2023-01-29T14:56:20;16.03;;;12.53;;
16288;SDS011;26089;43.538;5.250;2023-01-29T14:58:53;18.00;;;12.83;;
16288;SDS011;26089;43.538;5.250;2023-01-29T15:01:27;14.23;;;11.40;;